Time,TemperatureF,DewpointF,PressureIn,WindDirection,WindDirectionDegrees,WindSpeedMPH,WindSpeedGustMPH,Humidity,HourlyPrecipIn,Conditions,Clouds,dailyrainin,SoftwareType,DateUTC
2013-01-02 06:45:00,63.8,47.8,30.07,ESE,112,0.0,2.0,56,0.00,,,0.00,VWS V14.01,2013-01-02 11:45:00,
2013-01-02 07:14:00,63.8,47.8,30.07,ESE,112,0.0,2.0,56,0.00,,,0.00,VWS V14.01,2013-01-02 12:14:00,
2013-01-02 07:19:00,63.5,47.1,30.07,ESE,113,0.0,0.0,55,0.00,,,0.00,VWS V14.01,2013-01-02 12:19:00,
2013-01-02 07:24:00,63.4,47.0,30.07,ESE,113,0.0,0.0,55,0.00,,,0.00,VWS V14.01,2013-01-02 12:24:00,
2013-01-02 07:29:00,63.5,47.1,30.07,ESE,113,0.0,0.0,55,0.00,,,0.00,VWS V14.01,2013-01-02 12:29:00,
2013-01-02 07:34:00,63.5,47.1,30.07,ESE,113,0.0,0.0,55,0.00,,,0.00,VWS V14.01,2013-01-02 12:34:00,
2013-01-02 07:39:00,63.6,47.2,30.07,ESE,113,0.0,0.0,55,0.00,,,0.00,VWS V14.01,2013-01-02 12:39:00,
2013-01-02 07:44:00,63.7,46.8,30.07,ESE,113,0.0,1.0,54,0.00,,,0.00,VWS V14.01,2013-01-02 12:44:00,
2013-01-02 07:49:00,63.9,47.0,30.08,ESE,113,0.0,0.0,54,0.00,,,0.00,VWS V14.01,2013-01-02 12:49:00,
2013-01-02 07:54:00,64.1,47.1,30.08,ESE,113,0.0,0.0,54,0.00,,,0.00,VWS V14.01,2013-01-02 12:54:00,
2013-01-02 07:59:00,64.2,47.2,30.08,ESE,113,0.0,0.0,54,0.00,,,0.00,VWS V14.01,2013-01-02 12:59:00,
2013-01-02 08:04:00,64.2,47.2,30.08,ESE,113,0.0,0.0,54,0.00,,,0.00,VWS V14.01,2013-01-02 13:04:00,
2013-01-02 08:09:00,64.4,47.4,30.08,ESE,113,0.0,0.0,54,0.00,,,0.00,VWS V14.01,2013-01-02 13:09:00,
2013-01-02 08:14:00,64.8,47.3,30.08,ESE,113,0.0,1.0,53,0.00,,,0.00,VWS V14.01,2013-01-02 13:14:00,
2013-01-02 08:19:00,65.4,47.8,30.08,ESE,113,0.0,0.0,53,0.00,,,0.00,VWS V14.01,2013-01-02 13:19:00,
2013-01-02 08:24:00,66.2,48.6,30.08,ESE,113,0.0,0.0,53,0.00,,,0.00,VWS V14.01,2013-01-02 13:24:00,
2013-01-02 08:29:00,67.1,49.4,30.08,ESE,113,0.0,0.0,53,0.00,,,0.00,VWS V14.01,2013-01-02 13:29:00,
2013-01-02 08:34:00,68.0,51.2,30.08,ESE,113,0.0,0.0,55,0.00,,,0.00,VWS V14.01,2013-01-02 13:34:00,
2013-01-02 08:39:00,68.9,54.0,30.08,ESE,113,0.0,0.0,59,0.00,,,0.00,VWS V14.01,2013-01-02 13:39:00,
2013-01-02 08:44:00,69.4,55.4,30.08,ESE,113,0.0,0.0,61,0.00,,,0.00,VWS V14.01,2013-01-02 13:44:00,
2013-01-02 08:49:00,69.9,55.8,30.08,ESE,113,0.0,0.0,61,0.00,,,0.00,VWS V14.01,2013-01-02 13:49:00,
2013-01-02 08:54:00,70.3,56.7,30.08,ESE,113,0.0,1.0,62,0.00,,,0.00,VWS V14.01,2013-01-02 13:54:00,
2013-01-02 08:59:00,70.8,57.6,30.08,ESE,113,2.0,2.0,63,0.00,,,0.00,VWS V14.01,2013-01-02 13:59:00,
2013-01-02 09:04:00,71.6,58.3,30.08,SE,140,0.0,3.0,63,0.00,,,0.00,VWS V14.01,2013-01-02 14:04:00,
2013-01-02 09:09:00,72.3,59.5,30.08,SE,140,2.0,3.0,64,0.00,,,0.00,VWS V14.01,2013-01-02 14:09:00,
2013-01-02 09:14:00,72.9,60.9,30.09,SSE,159,1.0,3.0,66,0.00,,,0.00,VWS V14.01,2013-01-02 14:14:00,
2013-01-02 09:19:00,73.4,60.9,30.09,SSE,150,1.0,4.0,65,0.00,,,0.00,VWS V14.01,2013-01-02 14:19:00,
2013-01-02 09:24:00,73.9,61.8,30.09,SSE,157,1.0,4.0,66,0.00,,,0.00,VWS V14.01,2013-01-02 14:24:00,
2013-01-02 09:29:00,73.9,61.8,30.09,South,177,1.0,4.0,66,0.00,,,0.00,VWS V14.01,2013-01-02 14:29:00,
2013-01-02 09:34:00,74.0,61.9,30.09,South,187,3.0,5.0,66,0.00,,,0.00,VWS V14.01,2013-01-02 14:34:00,
2013-01-02 09:39:00,74.0,61.9,30.09,SW,215,1.0,6.0,66,0.00,,,0.00,VWS V14.01,2013-01-02 14:39:00,
2013-01-02 09:44:00,74.3,62.2,30.09,South,184,3.0,6.0,66,0.00,,,0.00,VWS V14.01,2013-01-02 14:44:00,
2013-01-02 09:49:00,74.7,62.6,30.09,SW,224,2.0,5.0,66,0.00,,,0.00,VWS V14.01,2013-01-02 14:49:00,
2013-01-02 09:54:00,74.9,62.8,30.10,South,191,3.0,6.0,66,0.00,,,0.00,VWS V14.01,2013-01-02 14:54:00,
2013-01-02 09:59:00,74.8,62.7,30.10,South,180,7.0,8.0,66,0.00,,,0.00,VWS V14.01,2013-01-02 14:59:00,
2013-01-02 10:04:00,74.8,62.7,30.10,SSW,193,2.0,8.0,66,0.00,,,0.00,VWS V14.01,2013-01-02 15:04:00,
2013-01-02 10:09:00,74.7,62.6,30.10,SSE,163,3.0,8.0,66,0.00,,,0.00,VWS V14.01,2013-01-02 15:09:00,
2013-01-02 10:14:00,74.9,62.8,30.10,SSW,208,4.0,8.0,66,0.00,,,0.00,VWS V14.01,2013-01-02 15:14:00,
2013-01-02 10:19:00,74.9,62.8,30.10,SSW,198,5.0,8.0,66,0.00,,,0.00,VWS V14.01,2013-01-02 15:19:00,
2013-01-02 10:24:00,75.0,62.9,30.10,SSW,207,4.0,8.0,66,0.00,,,0.00,VWS V14.01,2013-01-02 15:24:00,
2013-01-02 10:29:00,75.0,62.9,30.10,South,188,2.0,8.0,66,0.00,,,0.00,VWS V14.01,2013-01-02 15:29:00,
2013-01-02 10:34:00,75.2,63.1,30.10,SSE,150,2.0,7.0,66,0.00,,,0.00,VWS V14.01,2013-01-02 15:34:00,
2013-01-02 10:39:00,75.6,63.5,30.09,South,183,4.0,7.0,66,0.00,,,0.00,VWS V14.01,2013-01-02 15:39:00,
2013-01-02 10:44:00,75.8,63.6,30.09,South,186,2.0,8.0,66,0.00,,,0.00,VWS V14.01,2013-01-02 15:44:00,
2013-01-02 10:49:00,76.3,64.1,30.09,ESE,118,3.0,8.0,66,0.00,,,0.00,VWS V14.01,2013-01-02 15:49:00,
2013-01-02 10:54:00,76.7,64.5,30.09,SW,217,2.0,8.0,66,0.00,,,0.00,VWS V14.01,2013-01-02 15:54:00,
2013-01-02 10:59:00,77.0,64.8,30.09,South,180,2.0,8.0,66,0.00,,,0.00,VWS V14.01,2013-01-02 15:59:00,
2013-01-02 11:04:00,77.4,65.2,30.09,ESE,111,0.0,5.0,66,0.00,,,0.00,VWS V14.01,2013-01-02 16:04:00,
2013-01-02 11:09:00,77.7,65.0,30.09,South,175,6.0,9.0,65,0.00,,,0.00,VWS V14.01,2013-01-02 16:09:00,
2013-01-02 11:14:00,76.7,64.5,30.09,South,189,3.0,9.0,66,0.00,,,0.00,VWS V14.01,2013-01-02 16:14:00,
2013-01-02 11:19:00,76.9,64.2,30.08,South,178,2.0,7.0,65,0.00,,,0.00,VWS V14.01,2013-01-02 16:19:00,
2013-01-02 11:24:00,77.1,64.0,30.08,South,178,1.0,7.0,64,0.00,,,0.00,VWS V14.01,2013-01-02 16:24:00,
2013-01-02 11:29:00,77.0,64.3,30.08,SW,230,2.0,7.0,65,0.00,,,0.00,VWS V14.01,2013-01-02 16:29:00,
2013-01-02 11:34:00,77.0,63.9,30.08,SSE,168,0.0,7.0,64,0.00,,,0.00,VWS V14.01,2013-01-02 16:34:00,
2013-01-02 11:39:00,78.4,64.8,30.07,South,174,5.0,7.0,63,0.00,,,0.00,VWS V14.01,2013-01-02 16:39:00,
2013-01-02 11:44:00,78.0,63.9,30.07,South,180,4.0,7.0,62,0.00,,,0.00,VWS V14.01,2013-01-02 16:44:00,
2013-01-02 11:49:00,77.5,63.9,30.07,SSW,205,2.0,3.0,63,0.00,,,0.00,VWS V14.01,2013-01-02 16:49:00,
2013-01-02 11:54:00,77.8,64.7,30.07,SE,138,2.0,4.0,64,0.00,,,0.00,VWS V14.01,2013-01-02 16:54:00,
2013-01-02 11:59:00,78.8,64.7,30.06,South,180,4.0,8.0,62,0.00,,,0.00,VWS V14.01,2013-01-02 16:59:00,
2013-01-02 12:04:00,78.8,65.2,30.06,South,186,2.0,6.0,63,0.00,,,0.00,VWS V14.01,2013-01-02 17:04:00,
2013-01-02 12:09:00,79.7,65.5,30.06,SSE,160,0.0,6.0,62,0.00,,,0.00,VWS V14.01,2013-01-02 17:09:00,
2013-01-02 12:14:00,79.3,65.2,30.05,South,186,3.0,6.0,62,0.00,,,0.00,VWS V14.01,2013-01-02 17:14:00,
2013-01-02 12:19:00,78.9,64.8,30.05,SW,234,5.0,6.0,62,0.00,,,0.00,VWS V14.01,2013-01-02 17:19:00,
2013-01-02 12:24:00,77.9,64.3,30.05,South,178,4.0,6.0,63,0.00,,,0.00,VWS V14.01,2013-01-02 17:24:00,
2013-01-02 12:29:00,78.3,64.2,30.05,SSE,165,1.0,6.0,62,0.00,,,0.00,VWS V14.01,2013-01-02 17:29:00,
2013-01-02 12:34:00,78.0,64.4,30.05,SW,234,4.0,5.0,63,0.00,,,0.00,VWS V14.01,2013-01-02 17:34:00,
2013-01-02 12:39:00,77.5,63.9,30.04,SW,235,3.0,5.0,63,0.00,,,0.00,VWS V14.01,2013-01-02 17:39:00,
2013-01-02 12:44:00,77.5,64.4,30.04,WSW,244,5.0,5.0,64,0.00,,,0.00,VWS V14.01,2013-01-02 17:44:00,
2013-01-02 12:49:00,77.1,63.5,30.04,WSW,244,2.0,4.0,63,0.00,,,0.00,VWS V14.01,2013-01-02 17:49:00,
2013-01-02 12:54:00,77.3,63.3,30.04,WSW,244,3.0,4.0,62,0.00,,,0.00,VWS V14.01,2013-01-02 17:54:00,
2013-01-02 12:59:00,77.1,63.5,30.03,WSW,244,1.0,4.0,63,0.00,,,0.00,VWS V14.01,2013-01-02 17:59:00,
2013-01-02 13:04:00,77.2,63.6,30.03,WSW,240,3.0,5.0,63,0.00,,,0.00,VWS V14.01,2013-01-02 18:04:00,
2013-01-02 13:15:00,77.4,63.8,30.03,WSW,248,2.0,6.0,63,0.00,,,0.00,VWS V14.01,2013-01-02 18:15:00,
2013-01-02 13:39:00,77.4,63.8,30.03,WSW,248,2.0,6.0,63,0.00,,,0.00,VWS V14.01,2013-01-02 18:39:00,
2013-01-02 13:44:00,78.3,62.8,30.01,SW,234,3.0,10.0,59,0.00,,,0.00,VWS V14.01,2013-01-02 18:44:00,
2013-01-02 13:49:00,78.5,62.5,30.01,WSW,240,3.0,7.0,58,0.00,,,0.00,VWS V14.01,2013-01-02 18:49:00,
2013-01-02 13:54:00,79.3,63.3,30.01,WSW,240,3.0,7.0,58,0.00,,,0.00,VWS V14.01,2013-01-02 18:54:00,
2013-01-02 13:59:00,79.4,63.8,30.01,WSW,256,5.0,7.0,59,0.00,,,0.00,VWS V14.01,2013-01-02 18:59:00,
2013-01-02 14:04:00,79.4,63.8,30.01,SW,214,2.0,9.0,59,0.00,,,0.00,VWS V14.01,2013-01-02 19:04:00,
2013-01-02 14:09:00,80.5,63.9,30.00,SW,223,4.0,9.0,57,0.00,,,0.00,VWS V14.01,2013-01-02 19:09:00,
2013-01-02 14:14:00,80.4,64.3,30.00,SW,223,0.0,9.0,58,0.00,,,0.00,VWS V14.01,2013-01-02 19:14:00,
2013-01-02 14:19:00,81.1,64.4,30.00,West,268,1.0,4.0,57,0.00,,,0.00,VWS V14.01,2013-01-02 19:19:00,
2013-01-02 14:24:00,81.3,64.1,30.00,SW,233,2.0,7.0,56,0.00,,,0.00,VWS V14.01,2013-01-02 19:24:00,
2013-01-02 14:29:00,80.6,63.5,30.00,WSW,241,7.0,8.0,56,0.00,,,0.00,VWS V14.01,2013-01-02 19:29:00,
2013-01-02 14:34:00,80.6,63.5,30.00,NW,311,3.0,5.0,56,0.00,,,0.00,VWS V14.01,2013-01-02 19:34:00,
2013-01-02 14:39:00,80.7,63.6,30.00,SW,233,7.0,10.0,56,0.00,,,0.00,VWS V14.01,2013-01-02 19:39:00,
2013-01-02 14:44:00,80.2,63.1,30.00,SW,230,5.0,10.0,56,0.00,,,0.00,VWS V14.01,2013-01-02 19:44:00,
2013-01-02 14:49:00,80.0,62.9,30.00,WSW,247,3.0,6.0,56,0.00,,,0.00,VWS V14.01,2013-01-02 19:49:00,
2013-01-02 14:54:00,80.7,63.6,30.00,NW,309,2.0,6.0,56,0.00,,,0.00,VWS V14.01,2013-01-02 19:54:00,
2013-01-02 14:59:00,80.2,63.6,30.00,WSW,248,4.0,7.0,57,0.00,,,0.00,VWS V14.01,2013-01-02 19:59:00,
2013-01-02 15:04:00,79.8,64.2,30.00,SW,223,4.0,8.0,59,0.00,,,0.00,VWS V14.01,2013-01-02 20:04:00,
2013-01-02 15:09:00,80.0,63.9,30.00,SW,234,4.0,8.0,58,0.00,,,0.00,VWS V14.01,2013-01-02 20:09:00,
2013-01-02 15:14:00,79.7,63.6,30.00,WNW,287,5.0,8.0,58,0.00,,,0.00,VWS V14.01,2013-01-02 20:14:00,
2013-01-02 15:19:00,79.5,63.4,30.00,WSW,252,4.0,8.0,58,0.00,,,0.00,VWS V14.01,2013-01-02 20:19:00,
2013-01-02 15:24:00,79.6,63.0,30.00,WSW,253,1.0,8.0,57,0.00,,,0.00,VWS V14.01,2013-01-02 20:24:00,
2013-01-02 15:29:00,80.1,62.5,30.00,WSW,240,7.0,8.0,55,0.00,,,0.00,VWS V14.01,2013-01-02 20:29:00,
2013-01-02 15:34:00,79.8,63.2,30.00,WSW,248,4.0,8.0,57,0.00,,,0.00,VWS V14.01,2013-01-02 20:34:00,
2013-01-02 15:39:00,80.0,62.9,30.00,SW,236,4.0,8.0,56,0.00,,,0.00,VWS V14.01,2013-01-02 20:39:00,
2013-01-02 15:44:00,79.8,62.7,30.00,WSW,237,5.0,9.0,56,0.00,,,0.00,VWS V14.01,2013-01-02 20:44:00,
2013-01-02 15:49:00,80.0,63.4,30.00,WSW,239,6.0,9.0,57,0.00,,,0.00,VWS V14.01,2013-01-02 20:49:00,
2013-01-02 15:54:00,79.9,62.8,30.00,WSW,239,6.0,9.0,56,0.00,,,0.00,VWS V14.01,2013-01-02 20:54:00,
2013-01-02 15:59:00,80.3,63.7,30.00,SSW,197,2.0,9.0,57,0.00,,,0.00,VWS V14.01,2013-01-02 20:59:00,
2013-01-02 16:04:00,80.5,63.9,30.00,WSW,240,5.0,6.0,57,0.00,,,0.00,VWS V14.01,2013-01-02 21:04:00,
2013-01-02 16:09:00,79.9,63.8,30.00,SW,227,3.0,7.0,58,0.00,,,0.00,VWS V14.01,2013-01-02 21:09:00,
2013-01-02 16:14:00,80.2,64.1,30.00,SW,228,2.0,7.0,58,0.00,,,0.00,VWS V14.01,2013-01-02 21:14:00,
2013-01-02 16:19:00,80.2,64.6,30.00,WSW,240,4.0,7.0,59,0.00,,,0.00,VWS V14.01,2013-01-02 21:19:00,
2013-01-02 16:24:00,80.2,64.6,30.00,WSW,246,3.0,7.0,59,0.00,,,0.00,VWS V14.01,2013-01-02 21:24:00,
2013-01-02 16:29:00,80.1,64.5,30.00,WSW,240,4.0,7.0,59,0.00,,,0.00,VWS V14.01,2013-01-02 21:29:00,
2013-01-02 16:34:00,80.0,64.9,30.00,WSW,239,0.0,5.0,60,0.00,,,0.00,VWS V14.01,2013-01-02 21:34:00,
2013-01-02 16:39:00,80.1,64.5,30.00,WNW,285,3.0,5.0,59,0.00,,,0.00,VWS V14.01,2013-01-02 21:39:00,
2013-01-02 16:44:00,79.9,64.3,30.00,WSW,257,3.0,6.0,59,0.00,,,0.00,VWS V14.01,2013-01-02 21:44:00,
2013-01-02 16:49:00,79.8,64.2,30.00,West,260,2.0,5.0,59,0.00,,,0.00,VWS V14.01,2013-01-02 21:49:00,
2013-01-02 16:54:00,79.9,64.3,30.00,WSW,246,3.0,5.0,59,0.00,,,0.00,VWS V14.01,2013-01-02 21:54:00,
2013-01-02 16:59:00,79.6,64.5,30.00,WSW,256,3.0,6.0,60,0.00,,,0.00,VWS V14.01,2013-01-02 21:59:00,
2013-01-02 17:04:00,79.4,64.8,30.00,West,260,3.0,5.0,61,0.00,,,0.00,VWS V14.01,2013-01-02 22:04:00,
2013-01-02 17:09:00,79.3,64.7,30.00,WSW,239,4.0,5.0,61,0.00,,,0.00,VWS V14.01,2013-01-02 22:09:00,
2013-01-02 17:14:00,79.1,64.5,30.01,West,281,2.0,5.0,61,0.00,,,0.00,VWS V14.01,2013-01-02 22:14:00,
2013-01-02 17:19:00,78.9,64.8,30.01,WSW,240,3.0,4.0,62,0.00,,,0.00,VWS V14.01,2013-01-02 22:19:00,
2013-01-02 17:24:00,78.5,64.9,30.01,WSW,249,0.0,4.0,63,0.00,,,0.00,VWS V14.01,2013-01-02 22:24:00,
2013-01-02 17:29:00,78.4,65.2,30.01,ESE,111,0.0,4.0,64,0.00,,,0.00,VWS V14.01,2013-01-02 22:29:00,
2013-01-02 17:34:00,77.8,65.1,30.01,South,178,1.0,4.0,65,0.00,,,0.00,VWS V14.01,2013-01-02 22:34:00,
2013-01-02 17:39:00,77.3,65.1,30.01,SE,135,2.0,4.0,66,0.00,,,0.00,VWS V14.01,2013-01-02 22:39:00,
2013-01-02 17:44:00,76.7,64.5,30.01,SSE,150,3.0,7.0,66,0.00,,,0.00,VWS V14.01,2013-01-02 22:44:00,
2013-01-02 17:49:00,76.4,64.2,30.02,ENE,67,1.0,4.0,66,0.00,,,0.00,VWS V14.01,2013-01-02 22:49:00,
2013-01-02 17:54:00,76.2,64.0,30.02,SE,140,1.0,6.0,66,0.00,,,0.00,VWS V14.01,2013-01-02 22:54:00,
2013-01-02 17:59:00,76.1,63.9,30.02,East,98,2.0,6.0,66,0.00,,,0.00,VWS V14.01,2013-01-02 22:59:00,
2013-01-02 18:03:00,76.0,63.8,30.02,ESE,114,0.0,5.0,66,0.00,,,0.00,VWS V14.01,2013-01-02 23:03:00,
2013-01-02 18:08:00,75.9,63.7,30.02,SE,140,1.0,5.0,66,0.00,,,0.00,VWS V14.01,2013-01-02 23:08:00,
2013-01-02 18:13:00,75.9,63.7,30.02,ESE,115,0.0,5.0,66,0.00,,,0.00,VWS V14.01,2013-01-02 23:13:00,
2013-01-02 18:18:00,75.8,63.6,30.02,SE,132,1.0,2.0,66,0.00,,,0.00,VWS V14.01,2013-01-02 23:18:00,
2013-01-02 18:23:00,75.8,63.6,30.02,SE,144,1.0,3.0,66,0.00,,,0.00,VWS V14.01,2013-01-02 23:23:00,
2013-01-02 18:28:00,75.8,63.6,30.02,SE,146,2.0,7.0,66,0.00,,,0.00,VWS V14.01,2013-01-02 23:28:00,
2013-01-02 18:33:00,75.7,63.5,30.02,SSE,149,4.0,10.0,66,0.00,,,0.00,VWS V14.01,2013-01-02 23:33:00,
2013-01-02 18:38:00,75.6,63.5,30.02,SE,129,3.0,10.0,66,0.00,,,0.00,VWS V14.01,2013-01-02 23:38:00,
2013-01-02 18:43:00,75.5,63.4,30.02,SSE,155,0.0,10.0,66,0.00,,,0.00,VWS V14.01,2013-01-02 23:43:00,
2013-01-02 18:48:00,75.3,63.2,30.03,SE,146,5.0,6.0,66,0.00,,,0.00,VWS V14.01,2013-01-02 23:48:00,
2013-01-02 18:53:00,75.1,63.0,30.03,SSE,149,1.0,8.0,66,0.00,,,0.00,VWS V14.01,2013-01-02 23:53:00,
2013-01-02 18:58:00,74.9,62.8,30.03,SE,139,3.0,8.0,66,0.00,,,0.00,VWS V14.01,2013-01-02 23:58:00,
2013-01-02 19:03:00,74.7,62.6,30.03,South,180,1.0,4.0,66,0.00,,,0.00,VWS V14.01,2013-01-03 00:03:00,
2013-01-02 19:08:00,74.6,62.1,30.04,SSE,161,3.0,6.0,65,0.00,,,0.00,VWS V14.01,2013-01-03 00:08:00,
2013-01-02 19:13:00,74.4,61.9,30.04,SSE,163,4.0,6.0,65,0.00,,,0.00,VWS V14.01,2013-01-03 00:13:00,
2013-01-02 19:18:00,74.2,61.7,30.04,SSE,163,2.0,3.0,65,0.00,,,0.00,VWS V14.01,2013-01-03 00:18:00,
2013-01-02 19:23:00,74.1,61.6,30.05,SSE,162,1.0,4.0,65,0.00,,,0.00,VWS V14.01,2013-01-03 00:23:00,
2013-01-02 19:28:00,74.0,61.5,30.05,SSE,161,2.0,4.0,65,0.00,,,0.00,VWS V14.01,2013-01-03 00:28:00,
2013-01-02 19:33:00,74.0,61.1,30.05,SE,126,2.0,4.0,64,0.00,,,0.00,VWS V14.01,2013-01-03 00:33:00,
2013-01-02 19:38:00,73.9,61.0,30.05,SSE,159,3.0,4.0,64,0.00,,,0.00,VWS V14.01,2013-01-03 00:38:00,
2013-01-02 19:43:00,73.8,60.9,30.05,South,171,1.0,5.0,64,0.00,,,0.00,VWS V14.01,2013-01-03 00:43:00,
2013-01-02 19:48:00,73.8,60.9,30.05,SSE,167,0.0,3.0,64,0.00,,,0.00,VWS V14.01,2013-01-03 00:48:00,
2013-01-02 19:53:00,73.7,60.3,30.05,SE,138,2.0,3.0,63,0.00,,,0.00,VWS V14.01,2013-01-03 00:53:00,
2013-01-02 19:58:00,73.6,60.2,30.05,SSE,151,1.0,3.0,63,0.00,,,0.00,VWS V14.01,2013-01-03 00:58:00,
2013-01-02 20:03:00,73.5,60.2,30.05,SSE,151,0.0,2.0,63,0.00,,,0.00,VWS V14.01,2013-01-03 01:03:00,
2013-01-02 20:08:00,73.5,60.2,30.05,SSE,148,0.0,3.0,63,0.00,,,0.00,VWS V14.01,2013-01-03 01:08:00,
2013-01-02 20:13:00,73.4,60.0,30.05,SSE,148,0.0,3.0,63,0.00,,,0.00,VWS V14.01,2013-01-03 01:13:00,